»·PEaware :: N762BB KFLG-KABQ

N762BB :: KFLG-KABQ

FLIGHT INFORMATION

Flight Status: Arrived
Operator: Privately registered:
United States
More flights under this callsign
Pilot: Slade E. (12022)
Aircraft: BEECH AIRCRAFT A90-E90 KING AIR
(BE9L)
More flights by this aircraft type
Origin: KFLG Flagstaff Pulliam
United States
Destination: KABQ Albuquerque Intl Sunport
United States
More flights between these airports :: More routes between these airports
Route: +FLG1 OATES V12 ZUN LAVAN3
File this flight plan on PilotEdge
Remarks:
Altitude:
(Current/Filed)
21,000ft
Speed:
(Current/Filed)
225kts
Departed: 25-Oct-20 07:54 AM
Arrived: 25-Oct-20 09:15 AM
Distance/Time
Traveled:
248nm/1:21
Distance/Time
To Go:
Arrived

Flight Plot

Page will automatically refresh every two minutes.

Flight plan parsing failed; only flown route is shown


Map Options




Map Legend


Flown Route
Filed Route
Departure Airport
Arrival Airport
Navaid (VOR, NDB)
Fix

Horizontal Profiles

Position Reports

Time Latitude Longitude Heading Altitude Ground
Speed
25-Oct-20 07:35 35.135648 -111.676865 222 7014ft 0kts
25-Oct-20 07:36 35.135648 -111.676865 222 7014ft 0kts
25-Oct-20 07:37 35.135648 -111.676865 222 7014ft 0kts
25-Oct-20 07:38 35.135648 -111.676865 222 7014ft 0kts
25-Oct-20 07:39 35.135648 -111.676865 222 7014ft 0kts
25-Oct-20 07:40 35.135648 -111.676865 222 7014ft 0kts
25-Oct-20 07:41 35.135648 -111.676865 222 7014ft 0kts
25-Oct-20 07:42 35.135648 -111.676865 222 7014ft 0kts
25-Oct-20 07:43 35.135648 -111.676865 222 7014ft 0kts
25-Oct-20 07:44 35.135648 -111.676865 222 7014ft 0kts
25-Oct-20 07:45 35.135648 -111.676865 222 7014ft 0kts
25-Oct-20 07:46 35.135648 -111.676865 222 7014ft 0kts
25-Oct-20 07:47 35.135648 -111.676865 222 7014ft 0kts
25-Oct-20 07:48 35.135648 -111.676865 222 7014ft 0kts
25-Oct-20 07:49 35.137157 -111.674374 40 7014ft 22kts
25-Oct-20 07:50 35.142798 -111.668370 40 7014ft 29kts
25-Oct-20 07:51 35.149116 -111.661659 40 7014ft 28kts
25-Oct-20 07:52 35.149808 -111.660416 127 7014ft 8kts
25-Oct-20 07:53 35.140110 -111.669318 222 7084ft 122kts
25-Oct-20 07:54 35.108221 -111.676535 157 8505ft 140kts
25-Oct-20 07:55 35.072279 -111.669453 201 9810ft 134kts
25-Oct-20 07:56 35.034276 -111.683161 202 10914ft 147kts
25-Oct-20 07:57 34.992340 -111.689389 186 12012ft 157kts
25-Oct-20 07:58 34.948091 -111.692951 181 13038ft 161kts
25-Oct-20 07:59 34.904503 -111.700705 193 13958ft 161kts
25-Oct-20 08:00 34.861703 -111.700391 125 14788ft 162kts
25-Oct-20 08:01 34.875059 -111.652129 62 15675ft 162kts
25-Oct-20 08:02 34.891427 -111.600805 72 16572ft 165kts
25-Oct-20 08:03 34.903130 -111.551893 74 17317ft 167kts
25-Oct-20 08:04 34.915141 -111.497028 74 18061ft 169kts
25-Oct-20 08:05 34.926973 -111.441487 75 18731ft 171kts
25-Oct-20 08:06 34.938894 -111.385048 75 19338ft 172kts
25-Oct-20 08:07 34.950858 -111.328189 75 19883ft 174kts
25-Oct-20 08:08 34.962905 -111.270806 75 20374ft 175kts
25-Oct-20 08:09 34.975014 -111.212965 75 20817ft 177kts
25-Oct-20 08:10 34.987404 -111.153617 75 21041ft 188kts
25-Oct-20 08:11 35.001108 -111.087746 75 21042ft 214kts
25-Oct-20 08:12 35.016279 -111.014556 75 21038ft 229kts
25-Oct-20 08:13 35.032104 -110.938036 75 21037ft 234kts
25-Oct-20 08:14 35.048077 -110.860550 75 21036ft 236kts
25-Oct-20 08:15 35.060064 -110.782073 91 21038ft 236kts
25-Oct-20 08:16 35.056613 -110.702027 93 21036ft 237kts
25-Oct-20 08:17 35.052467 -110.621854 93 21036ft 237kts
25-Oct-20 08:18 35.048190 -110.541595 93 21036ft 237kts
25-Oct-20 08:19 35.043842 -110.461164 93 21036ft 237kts
25-Oct-20 08:20 35.039453 -110.380972 93 21036ft 237kts
25-Oct-20 08:21 35.035002 -110.300582 94 21036ft 237kts
25-Oct-20 08:22 35.030496 -110.220167 94 21036ft 237kts
25-Oct-20 08:23 35.025931 -110.139708 94 21036ft 237kts
25-Oct-20 08:24 35.021319 -110.059342 94 21036ft 237kts
25-Oct-20 08:25 35.016658 -109.979062 94 21036ft 237kts
25-Oct-20 08:26 35.011948 -109.898875 94 21036ft 237kts
25-Oct-20 08:27 35.007168 -109.818389 94 21036ft 237kts
25-Oct-20 08:28 35.002343 -109.738043 94 21036ft 237kts
25-Oct-20 08:29 34.997460 -109.657636 94 21036ft 238kts
25-Oct-20 08:30 34.992521 -109.577182 94 21036ft 238kts
25-Oct-20 08:31 34.987525 -109.496685 94 21036ft 238kts
25-Oct-20 08:32 34.982489 -109.416402 94 21036ft 238kts
25-Oct-20 08:33 34.977390 -109.335954 94 21036ft 238kts
25-Oct-20 08:34 34.972232 -109.255376 94 21036ft 238kts
25-Oct-20 08:35 34.967025 -109.174915 94 21036ft 238kts
25-Oct-20 08:36 34.953557 -109.096072 103 21036ft 238kts
25-Oct-20 08:37 34.937522 -109.017768 104 21036ft 238kts
25-Oct-20 08:38 34.925736 -108.960724 104 21036ft 238kts
25-Oct-20 08:39 34.909500 -108.882444 104 21036ft 238kts
25-Oct-20 08:40 34.893215 -108.804209 104 21036ft 238kts
25-Oct-20 08:41 34.876930 -108.726247 104 21036ft 238kts
25-Oct-20 08:42 34.860487 -108.647801 104 21036ft 238kts
25-Oct-20 08:43 34.844068 -108.569737 104 21036ft 238kts
25-Oct-20 08:44 34.827562 -108.491530 104 21036ft 238kts
25-Oct-20 08:45 34.810991 -108.413284 104 21036ft 238kts
25-Oct-20 08:46 34.794395 -108.335187 104 20947ft 243kts
25-Oct-20 08:47 34.777157 -108.254332 104 20156ft 247kts
25-Oct-20 08:48 34.759816 -108.173300 104 19359ft 248kts
25-Oct-20 08:49 34.742365 -108.092048 104 18560ft 248kts
25-Oct-20 08:50 34.724885 -108.010953 104 17765ft 249kts
25-Oct-20 08:51 34.707268 -107.929504 104 16966ft 249kts
25-Oct-20 08:52 34.689584 -107.848033 104 16168ft 249kts
25-Oct-20 08:53 34.671811 -107.766550 104 15370ft 250kts
25-Oct-20 08:54 34.676561 -107.685756 64 14569ft 248kts
25-Oct-20 08:56 34.706965 -107.610894 61 13765ft 243kts
25-Oct-20 08:57 34.737320 -107.539651 60 13033ft 232kts
25-Oct-20 08:58 34.765598 -107.473550 60 13016ft 212kts
25-Oct-20 08:59 34.792336 -107.410959 60 13017ft 206kts
25-Oct-20 09:00 34.818465 -107.349651 60 13018ft 204kts
25-Oct-20 09:01 34.844559 -107.288304 60 13017ft 203kts
25-Oct-20 09:02 34.860716 -107.228922 102 13023ft 204kts
25-Oct-20 09:03 34.856073 -107.159900 88 13017ft 205kts
25-Oct-20 09:04 34.858913 -107.090320 84 13017ft 205kts
25-Oct-20 09:05 34.863537 -107.018347 84 12291ft 211kts
25-Oct-20 09:06 34.868021 -106.948830 84 11287ft 203kts
25-Oct-20 09:07 34.872039 -106.885840 85 10319ft 177kts
25-Oct-20 09:08 34.875790 -106.826955 86 9315ft 173kts
25-Oct-20 09:09 34.899515 -106.778249 43 8325ft 173kts
25-Oct-20 09:10 34.933490 -106.736579 44 7350ft 164kts
25-Oct-20 09:10 34.956607 -106.706559 40 6896ft 132kts
25-Oct-20 09:12 34.986128 -106.673320 41 6333ft 124kts
25-Oct-20 09:12 35.003743 -106.652228 37 5897ft 98kts
25-Oct-20 09:14 35.026445 -106.625539 43 5308ft 78kts
25-Oct-20 09:14 35.033207 -106.618004 15 5309ft 25kts
25-Oct-20 09:16 35.035902 -106.617782 245 5309ft 0kts
25-Oct-20 09:16 35.035902 -106.617782 245 5309ft 0kts
25-Oct-20 09:17 35.035902 -106.617782 245 5309ft 0kts
25-Oct-20 09:18 35.035902 -106.617782 245 5309ft 0kts

Navigation Log

Ident Type
Flight plan parsing failed, navigation log unavailable